createdAt,value
2022-09-23T00:01:19.276Z,1.65
2022-09-23T00:03:47.276Z,1.50
2022-09-23T00:06:17.534Z,1.42
2022-09-23T00:08:44.581Z,1.50
2022-09-23T00:11:17.297Z,1.88
2022-09-23T00:13:46.018Z,1.13
2022-09-23T00:16:16.264Z,0.88
2022-09-23T00:18:44.216Z,0.88
2022-09-23T00:21:14.598Z,0.80
2022-09-23T00:23:43.344Z,1.40
2022-09-23T00:26:13.181Z,1.02
2022-09-23T00:28:40.771Z,0.80
2022-09-23T00:31:14.024Z,1.27
2022-09-23T00:33:41.889Z,1.05
2022-09-23T00:36:11.612Z,0.70
2022-09-23T00:38:39.411Z,0.75
2022-09-23T00:41:06.815Z,0.85
2022-09-23T00:43:43.191Z,0.60
2022-09-23T00:46:14.881Z,0.80
2022-09-23T00:48:43.972Z,0.80
2022-09-23T00:51:17.973Z,0.52
2022-09-23T00:53:48.606Z,0.60
2022-09-23T00:56:16.578Z,0.70
2022-09-23T00:58:46.604Z,1.05
2022-09-23T01:01:14.595Z,0.70
2022-09-23T01:03:46.592Z,1.45
2022-09-23T01:06:14.822Z,0.80
2022-09-23T01:08:45.057Z,0.52
2022-09-23T01:11:31.669Z,0.80
2022-09-23T01:14:19.976Z,0.70
2022-09-23T01:17:13.873Z,0.65
2022-09-23T01:20:14.883Z,0.63
2022-09-23T01:22:53.765Z,0.68
2022-09-23T01:26:00.028Z,0.60
2022-09-23T01:28:33.484Z,0.80
2022-09-23T01:31:45.087Z,0.70
2022-09-23T01:34:36.390Z,0.70
2022-09-23T01:37:32.089Z,0.55
2022-09-23T01:40:24.059Z,0.75
2022-09-23T01:43:01.406Z,0.45
2022-09-23T01:45:34.121Z,1.00
2022-09-23T01:48:10.522Z,0.47
2022-09-23T01:50:58.396Z,0.43
2022-09-23T01:53:46.160Z,0.73
2022-09-23T01:56:22.421Z,0.60
2022-09-23T01:58:56.106Z,0.47
2022-09-23T02:02:07.992Z,0.50
2022-09-23T02:04:50.550Z,0.60
2022-09-23T02:07:20.480Z,0.52
2022-09-23T02:09:56.286Z,0.80
2022-09-23T02:12:28.654Z,1.02
2022-09-23T02:15:07.410Z,0.80
2022-09-23T02:17:52.313Z,0.60
2022-09-23T02:20:29.929Z,0.45
2022-09-23T02:23:11.592Z,0.43
2022-09-23T02:25:50.546Z,0.60
2022-09-23T02:28:43.419Z,0.60
2022-09-23T02:31:31.573Z,0.70
2022-09-23T02:34:43.178Z,0.60
2022-09-23T02:37:23.380Z,0.70
2022-09-23T02:40:12.813Z,0.60
2022-09-23T02:43:05.382Z,0.40
2022-09-23T02:45:33.843Z,0.70
2022-09-23T02:48:18.774Z,0.57
2022-09-23T02:50:47.838Z,0.52
2022-09-23T02:53:17.860Z,0.68
2022-09-23T02:55:45.130Z,0.50
2022-09-23T02:58:14.387Z,0.60
2022-09-23T03:01:24.365Z,0.60
2022-09-23T03:03:54.380Z,0.40
2022-09-23T03:06:27.465Z,0.55
2022-09-23T03:09:05.927Z,0.57
2022-09-23T03:11:38.735Z,0.30
2022-09-23T03:14:22.101Z,0.50
2022-09-23T03:16:58.406Z,0.45
2022-09-23T03:19:42.881Z,0.50
2022-09-23T03:22:21.107Z,0.40
2022-09-23T03:24:53.849Z,0.40
2022-09-23T03:27:25.782Z,0.40
2022-09-23T03:29:54.919Z,0.30
2022-09-23T03:32:24.876Z,0.50
2022-09-23T03:34:55.161Z,0.30
2022-09-23T03:37:33.752Z,0.40
2022-09-23T03:40:27.945Z,0.40
2022-09-23T03:42:57.318Z,0.35
2022-09-23T03:45:30.069Z,0.50
2022-09-23T03:47:57.338Z,0.30
2022-09-23T03:50:24.716Z,0.50
2022-09-23T03:52:51.934Z,0.38
2022-09-23T03:55:20.136Z,0.40
2022-09-23T03:57:47.657Z,0.30
2022-09-23T04:00:15.265Z,0.60
2022-09-23T04:02:42.413Z,0.70
2022-09-23T04:05:11.370Z,0.60
2022-09-23T04:07:38.597Z,0.60
2022-09-23T04:10:06.971Z,0.60
2022-09-23T04:12:34.068Z,0.70
2022-09-23T04:15:01.089Z,0.40
2022-09-23T04:17:28.185Z,1.20
2022-09-23T04:19:55.229Z,0.40
2022-09-23T04:22:22.367Z,0.60
2022-09-23T04:24:49.451Z,0.50
2022-09-23T04:27:16.625Z,0.28
2022-09-23T04:29:43.745Z,0.30
2022-09-23T04:32:11.073Z,0.40
2022-09-23T04:34:38.100Z,0.40
2022-09-23T04:37:05.186Z,0.38
2022-09-23T04:39:32.407Z,0.30
2022-09-23T04:41:59.802Z,0.80
2022-09-23T04:44:28.415Z,0.73
2022-09-23T04:46:55.530Z,0.28
2022-09-23T04:49:23.655Z,0.38
2022-09-23T04:51:50.739Z,0.75
2022-09-23T04:54:17.940Z,0.30
2022-09-23T04:56:45.029Z,0.20
2022-09-23T04:59:13.024Z,0.93
2022-09-23T05:01:40.277Z,0.65
2022-09-23T05:04:10.239Z,0.30
2022-09-23T05:06:37.377Z,0.47
2022-09-23T05:09:07.355Z,0.22
2022-09-23T05:11:34.796Z,0.35
2022-09-23T05:14:02.346Z,0.35
2022-09-23T05:16:29.889Z,0.45
2022-09-23T05:18:58.041Z,0.40
2022-09-23T05:21:30.354Z,0.47
2022-09-23T05:24:01.551Z,0.50
2022-09-23T05:26:31.005Z,0.30
2022-09-23T05:28:59.020Z,0.45
2022-09-23T05:31:28.396Z,0.35
2022-09-23T05:33:57.875Z,0.40
2022-09-23T05:36:26.361Z,0.40
2022-09-23T05:38:53.688Z,0.43
2022-09-23T05:41:23.317Z,0.32
2022-09-23T05:43:54.017Z,0.43
2022-09-23T05:46:27.935Z,0.40
2022-09-23T05:49:02.708Z,0.40
2022-09-23T05:51:38.189Z,0.25
2022-09-23T05:54:05.795Z,0.40
2022-09-23T05:56:34.459Z,0.60
2022-09-23T05:59:02.730Z,0.38
2022-09-23T06:01:35.477Z,0.40
2022-09-23T06:04:05.410Z,0.45
2022-09-23T06:06:38.503Z,0.43
2022-09-23T06:09:07.154Z,0.50
2022-09-23T06:11:35.650Z,0.45
2022-09-23T06:14:03.562Z,0.40
2022-09-23T06:16:33.265Z,0.50
2022-09-23T06:19:05.911Z,0.50
2022-09-23T06:21:35.909Z,0.40
2022-09-23T06:24:03.278Z,0.30
2022-09-23T06:26:33.720Z,0.20
2022-09-23T06:29:02.908Z,0.50
2022-09-23T06:31:30.745Z,0.60
2022-09-23T06:34:08.305Z,0.50
2022-09-23T06:36:43.736Z,0.35
2022-09-23T06:39:12.257Z,0.50
2022-09-23T06:41:39.622Z,0.50
2022-09-23T06:44:12.519Z,0.63
2022-09-23T06:46:39.649Z,0.50
2022-09-23T06:49:06.738Z,0.47
2022-09-23T06:51:34.561Z,1.02
2022-09-23T06:54:01.619Z,0.47
2022-09-23T06:56:28.779Z,0.40
2022-09-23T06:58:55.836Z,0.47
2022-09-23T07:01:23.527Z,0.50
2022-09-23T07:03:52.174Z,0.65
2022-09-23T07:06:20.072Z,0.50
2022-09-23T07:08:48.279Z,0.40
2022-09-23T07:11:19.434Z,0.50
2022-09-23T07:13:46.612Z,0.50
2022-09-23T07:16:14.284Z,0.43
2022-09-23T07:18:42.787Z,0.50
2022-09-23T07:21:15.969Z,0.52
2022-09-23T07:23:50.254Z,0.85
2022-09-23T07:26:19.549Z,0.50
2022-09-23T07:28:46.859Z,0.88
2022-09-23T07:31:27.724Z,1.08
2022-09-23T07:34:01.181Z,0.60
2022-09-23T07:36:32.894Z,0.68
2022-09-23T07:39:02.364Z,0.70
2022-09-23T07:41:31.585Z,0.70
2022-09-23T07:44:00.726Z,0.45
2022-09-23T07:46:30.697Z,0.50
2022-09-23T07:48:58.575Z,0.45
2022-09-23T07:51:34.721Z,0.52
2022-09-23T07:54:05.460Z,0.60
2022-09-23T07:56:33.452Z,0.40
2022-09-23T07:59:00.869Z,0.70
2022-09-23T08:01:33.355Z,0.52
2022-09-23T08:04:05.799Z,0.60
2022-09-23T08:06:33.706Z,0.40
2022-09-23T08:09:01.761Z,0.40
2022-09-23T08:11:29.207Z,0.40
2022-09-23T08:13:57.392Z,0.52
2022-09-23T08:16:24.486Z,0.70
2022-09-23T08:18:51.680Z,0.45
2022-09-23T08:21:22.551Z,0.68
2022-09-23T08:23:50.086Z,0.40
2022-09-23T08:26:21.498Z,0.40
2022-09-23T08:28:49.924Z,0.40
2022-09-23T08:31:17.085Z,0.43
2022-09-23T08:33:44.794Z,0.65
2022-09-23T08:36:13.043Z,0.60
2022-09-23T08:38:40.153Z,0.60
2022-09-23T08:41:31.721Z,0.38
2022-09-23T08:44:04.182Z,0.30
2022-09-23T08:46:40.274Z,0.32
2022-09-23T08:49:09.536Z,0.40
2022-09-23T08:51:46.378Z,0.40
2022-09-23T08:54:17.138Z,0.20
2022-09-23T08:56:51.425Z,0.40
2022-09-23T08:59:41.874Z,0.60
2022-09-23T09:02:18.999Z,0.25
2022-09-23T09:04:56.254Z,0.30
2022-09-23T09:07:38.082Z,0.30
2022-09-23T09:10:17.669Z,0.40
2022-09-23T09:12:49.953Z,0.28
2022-09-23T09:15:27.410Z,0.30
2022-09-23T09:17:59.359Z,0.38
2022-09-23T09:20:41.581Z,0.40
2022-09-23T09:23:11.893Z,0.30
2022-09-23T09:25:49.786Z,0.30
2022-09-23T09:28:31.186Z,0.77
2022-09-23T09:31:08.104Z,0.22
2022-09-23T09:34:17.982Z,0.30
2022-09-23T09:37:02.234Z,0.30
2022-09-23T09:39:32.171Z,0.35
2022-09-23T09:42:00.509Z,0.50
2022-09-23T09:45:11.178Z,0.40
2022-09-23T09:48:22.773Z,0.30
2022-09-23T09:50:52.272Z,0.35
2022-09-23T09:53:27.765Z,0.40
2022-09-23T09:56:07.195Z,0.40
2022-09-23T09:58:49.409Z,0.30
2022-09-23T10:01:31.897Z,0.30
2022-09-23T10:04:02.239Z,0.35
2022-09-23T10:06:34.123Z,0.50
2022-09-23T10:09:12.184Z,0.35
2022-09-23T10:11:40.568Z,0.35
2022-09-23T10:14:18.278Z,0.85
2022-09-23T10:16:48.988Z,0.45
2022-09-23T10:19:28.402Z,0.30
2022-09-23T10:22:00.304Z,0.22
2022-09-23T10:24:30.586Z,0.32
2022-09-23T10:27:09.541Z,0.22
2022-09-23T10:29:50.963Z,0.20
2022-09-23T10:32:32.895Z,0.20
2022-09-23T10:35:13.713Z,0.50
2022-09-23T10:37:55.197Z,0.13
2022-09-23T10:40:59.784Z,0.10
2022-09-23T10:44:03.082Z,0.10
2022-09-23T10:46:39.713Z,0.30
2022-09-23T10:49:18.896Z,0.20
2022-09-23T10:52:25.325Z,0.10
2022-09-23T10:55:12.947Z,0.10
2022-09-23T10:57:46.363Z,0.10
2022-09-23T11:00:51.938Z,0.20
2022-09-23T11:03:36.834Z,0.40
2022-09-23T11:06:06.702Z,0.07
2022-09-23T11:08:33.719Z,0.35
2022-09-23T11:11:24.138Z,0.20
2022-09-23T11:14:15.928Z,0.40
2022-09-23T11:17:15.515Z,0.40
2022-09-23T11:19:51.777Z,0.10
2022-09-23T11:22:38.170Z,0.30
2022-09-23T11:25:17.355Z,0.08
2022-09-23T11:27:59.689Z,0.20
2022-09-23T11:30:36.173Z,0.45
2022-09-23T11:33:04.637Z,0.10
2022-09-23T11:35:50.998Z,0.10
2022-09-23T11:38:26.202Z,0.32
2022-09-23T11:43:33.995Z,0.20
2022-09-23T11:46:18.428Z,0.20
2022-09-23T11:48:58.752Z,0.10
2022-09-23T11:51:56.266Z,0.20
2022-09-23T11:54:28.239Z,0.20
2022-09-23T11:57:00.320Z,0.10
2022-09-23T11:59:41.159Z,0.10
2022-09-23T12:02:31.412Z,0.17
2022-09-23T12:05:16.697Z,0.13
2022-09-23T12:08:14.817Z,0.10
2022-09-23T12:10:48.881Z,0.20
2022-09-23T12:13:39.056Z,0.20
2022-09-23T12:16:33.664Z,0.10
2022-09-23T12:19:28.588Z,0.13
2022-09-23T12:22:14.290Z,0.20
2022-09-23T12:25:14.759Z,0.17
2022-09-23T12:27:48.215Z,0.20
2022-09-23T12:30:25.478Z,0.10
2022-09-23T12:32:54.335Z,0.10
2022-09-23T12:35:32.731Z,0.10
2022-09-23T12:38:01.407Z,0.43
2022-09-23T12:40:43.871Z,0.20
2022-09-23T12:43:35.622Z,0.45
2022-09-23T12:46:22.879Z,0.10
2022-09-23T12:48:59.203Z,0.20
2022-09-23T12:51:32.245Z,0.50
2022-09-23T12:54:05.484Z,0.32
2022-09-23T12:56:38.982Z,0.65
2022-09-23T12:59:29.515Z,0.40
2022-09-23T13:01:57.617Z,0.60
2022-09-23T13:05:12.493Z,0.70
2022-09-23T13:07:46.479Z,0.68
2022-09-23T13:10:28.365Z,0.45
2022-09-23T13:12:56.991Z,0.52
2022-09-23T13:15:30.750Z,0.75
2022-09-23T13:18:22.646Z,0.70
2022-09-23T13:20:54.116Z,0.50
2022-09-23T13:23:26.930Z,0.70
2022-09-23T13:25:59.614Z,0.68
2022-09-23T13:28:34.548Z,0.73
2022-09-23T13:31:15.681Z,0.57
2022-09-23T13:33:49.042Z,0.40
2022-09-23T13:36:21.214Z,0.40
2022-09-23T13:38:48.789Z,0.40
2022-09-23T13:41:20.531Z,0.52
2022-09-23T13:43:59.181Z,0.50
2022-09-23T13:46:30.089Z,0.50
2022-09-23T13:48:57.269Z,0.75
2022-09-23T13:51:33.341Z,0.60
2022-09-23T13:54:03.085Z,0.70
2022-09-23T13:56:33.215Z,0.40
2022-09-23T13:59:23.703Z,0.60
2022-09-23T14:01:50.989Z,0.43
2022-09-23T14:04:25.802Z,0.17
2022-09-23T14:06:54.384Z,0.10
2022-09-23T14:09:27.799Z,0.17
2022-09-23T14:11:58.405Z,0.20
2022-09-23T14:14:27.124Z,0.20
2022-09-23T14:16:54.990Z,0.20
2022-09-23T14:19:24.106Z,0.10
2022-09-23T14:21:55.693Z,0.20
2022-09-23T14:24:29.792Z,0.30
2022-09-23T14:27:06.851Z,0.40
2022-09-23T14:29:37.028Z,0.30
2022-09-23T14:32:21.305Z,0.28
2022-09-23T14:35:04.103Z,0.38
2022-09-23T14:37:58.954Z,0.25
2022-09-23T14:40:34.652Z,0.40
2022-09-23T14:43:27.669Z,0.20
2022-09-23T14:45:57.204Z,0.20
2022-09-23T14:48:33.573Z,0.22
2022-09-23T14:51:08.663Z,0.13
2022-09-23T14:53:41.545Z,0.10
2022-09-23T14:56:08.591Z,0.00
2022-09-23T14:58:51.914Z,0.10
2022-09-23T15:01:25.506Z,0.10
2022-09-23T15:03:54.424Z,0.10
2022-09-23T15:06:23.618Z,0.20
2022-09-23T15:08:52.778Z,0.17
2022-09-23T15:11:21.844Z,0.10
2022-09-23T15:13:53.144Z,0.05
2022-09-23T15:16:27.173Z,0.00
2022-09-23T15:21:25.043Z,0.10
2022-09-23T15:23:56.599Z,0.00
2022-09-23T15:26:26.515Z,0.10
2022-09-23T15:28:56.107Z,0.20
2022-09-23T15:31:26.655Z,0.00
2022-09-23T15:33:54.026Z,0.10
2022-09-23T15:36:28.719Z,0.10
2022-09-23T15:39:01.239Z,0.20
2022-09-23T15:41:28.671Z,0.20
2022-09-23T15:43:56.572Z,0.20
2022-09-23T15:46:28.251Z,0.10
2022-09-23T15:49:16.218Z,0.20
2022-09-23T15:51:43.270Z,0.25
2022-09-23T15:54:12.715Z,0.22
2022-09-23T15:56:39.922Z,0.20
2022-09-23T15:59:07.012Z,0.20
2022-09-23T16:01:36.610Z,0.20
2022-09-23T16:04:04.606Z,0.30
2022-09-23T16:06:32.464Z,0.20
2022-09-23T16:08:59.764Z,0.73
2022-09-23T16:11:31.978Z,0.30
2022-09-23T16:14:00.802Z,0.20
2022-09-23T16:16:28.245Z,0.20
2022-09-23T16:18:55.523Z,0.17
2022-09-23T16:21:26.500Z,0.80
2022-09-23T16:23:55.350Z,0.85
2022-09-23T16:26:27.625Z,1.38
2022-09-23T16:28:56.201Z,1.35
2022-09-23T16:31:25.632Z,0.60
2022-09-23T16:33:53.735Z,0.50
2022-09-23T16:36:27.184Z,0.40
2022-09-23T16:38:57.925Z,0.40
2022-09-23T16:41:27.111Z,0.40
2022-09-23T16:43:54.176Z,0.68
2022-09-23T16:46:21.537Z,0.60
2022-09-23T16:48:52.690Z,0.30
2022-09-23T16:51:23.113Z,0.40
2022-09-23T16:53:51.577Z,0.20
2022-09-23T16:56:27.295Z,0.22
2022-09-23T16:58:56.112Z,0.28
2022-09-23T17:01:47.030Z,0.40
2022-09-23T17:04:15.872Z,0.40
2022-09-23T17:06:50.653Z,0.30
2022-09-23T17:09:20.046Z,0.30
2022-09-23T17:11:58.808Z,0.30
2022-09-23T17:14:26.125Z,0.40
2022-09-23T17:16:53.126Z,0.40
2022-09-23T17:19:20.211Z,0.40
2022-09-23T17:21:47.338Z,0.20
2022-09-23T17:24:14.399Z,0.30
2022-09-23T17:26:41.591Z,0.50
2022-09-23T17:29:10.270Z,0.30
2022-09-23T17:31:37.377Z,0.30
2022-09-23T17:34:04.536Z,0.30
2022-09-23T17:36:31.968Z,0.20
2022-09-23T17:38:59.305Z,0.50
2022-09-23T17:41:26.988Z,0.30
2022-09-23T17:43:56.741Z,0.40
2022-09-23T17:46:24.022Z,0.50
2022-09-23T17:48:55.776Z,0.50
2022-09-23T17:51:24.180Z,0.50
2022-09-23T17:53:51.602Z,0.68
2022-09-23T17:56:21.541Z,0.68
2022-09-23T17:58:49.770Z,0.50
2022-09-23T18:01:20.527Z,0.57
2022-09-23T18:03:48.482Z,0.80
2022-09-23T18:06:23.635Z,0.70
2022-09-23T18:08:51.593Z,1.30
2022-09-23T18:11:21.156Z,3.83
2022-09-23T18:13:54.146Z,3.70
2022-09-23T18:16:24.083Z,1.92
2022-09-23T18:18:53.247Z,1.88
2022-09-23T18:21:22.013Z,1.90
2022-09-23T18:23:49.297Z,2.47
2022-09-23T18:26:18.293Z,2.22
2022-09-23T18:28:45.448Z,1.98
2022-09-23T18:31:12.941Z,2.40
2022-09-23T18:33:40.704Z,2.53
2022-09-23T18:36:08.878Z,2.05
2022-09-23T18:38:36.008Z,3.10
2022-09-23T18:41:03.492Z,2.40
2022-09-23T18:43:37.477Z,2.30
2022-09-23T18:46:10.927Z,2.72
2022-09-23T18:48:56.532Z,2.28
2022-09-23T18:51:26.154Z,2.03
2022-09-23T18:53:57.696Z,2.28
2022-09-23T18:56:27.396Z,2.25
2022-09-23T18:58:55.522Z,1.70
2022-09-23T19:01:24.025Z,1.42
2022-09-23T19:03:55.657Z,1.08
2022-09-23T19:06:23.561Z,1.25
2022-09-23T19:08:52.628Z,0.80
2022-09-23T19:11:20.758Z,1.13
2022-09-23T19:13:54.248Z,1.02
2022-09-23T19:16:24.655Z,1.35
2022-09-23T19:18:52.266Z,1.20
2022-09-23T19:21:21.926Z,0.80
2022-09-23T19:23:55.373Z,0.80
2022-09-23T19:26:25.957Z,0.80
2022-09-23T19:28:54.733Z,0.90
2022-09-23T19:31:24.171Z,0.82
2022-09-23T19:33:56.899Z,0.70
2022-09-23T19:36:26.821Z,2.28
2022-09-23T19:38:58.733Z,1.52
2022-09-23T19:41:32.416Z,1.48
2022-09-23T19:44:03.837Z,2.53
2022-09-23T19:46:32.572Z,1.65
2022-09-23T19:49:00.570Z,2.17
2022-09-23T19:51:28.520Z,1.40
2022-09-23T19:53:55.564Z,1.30
2022-09-23T19:56:23.178Z,1.30
2022-09-23T19:58:54.325Z,1.48
2022-09-23T20:01:22.818Z,1.23
2022-09-23T20:03:50.205Z,1.48
2022-09-23T20:06:18.187Z,1.30
2022-09-23T20:08:46.133Z,2.33
2022-09-23T20:11:15.604Z,1.70
2022-09-23T20:13:47.226Z,1.63
2022-09-23T20:16:19.844Z,2.33
2022-09-23T20:18:51.933Z,1.42
2022-09-23T20:21:20.279Z,1.88
2022-09-23T20:23:47.419Z,1.90
2022-09-23T20:26:32.916Z,2.00
2022-09-23T20:29:01.475Z,1.73
2022-09-23T20:31:29.029Z,2.88
2022-09-23T20:34:00.390Z,3.13
2022-09-23T20:36:29.028Z,2.65
2022-09-23T20:38:57.250Z,2.42
2022-09-23T20:41:24.348Z,2.30
2022-09-23T20:43:55.345Z,3.63
2022-09-23T20:46:25.400Z,3.22
2022-09-23T20:48:54.166Z,2.78
2022-09-23T20:51:21.213Z,3.47
2022-09-23T20:53:53.030Z,4.20
2022-09-23T20:56:23.735Z,3.13
2022-09-23T20:58:52.726Z,3.05
2022-09-23T21:01:21.194Z,2.70
2022-09-23T21:03:51.462Z,3.08
2022-09-23T21:06:19.695Z,2.50
2022-09-23T21:08:46.989Z,2.45
2022-09-23T21:11:16.846Z,2.15
2022-09-23T21:13:49.266Z,1.98
2022-09-23T21:16:18.661Z,1.75
2022-09-23T21:18:45.951Z,1.75
2022-09-23T21:21:14.435Z,1.67
2022-09-23T21:23:43.485Z,1.10
2022-09-23T21:26:12.120Z,1.23
2022-09-23T21:28:41.484Z,0.75
2022-09-23T21:31:11.339Z,0.90
2022-09-23T21:33:38.661Z,0.68
2022-09-23T21:36:06.998Z,1.15
2022-09-23T21:38:37.910Z,1.00
2022-09-23T21:41:09.806Z,0.70
2022-09-23T21:43:38.958Z,0.75
2022-09-23T21:46:10.783Z,0.82
2022-09-23T21:48:41.269Z,1.02
2022-09-23T21:51:14.250Z,0.77
2022-09-23T21:53:43.373Z,1.20
2022-09-23T21:56:20.509Z,1.00
2022-09-23T21:58:51.722Z,1.20
2022-09-23T22:01:30.004Z,1.00
2022-09-23T22:04:02.269Z,1.00
2022-09-23T22:06:30.551Z,1.45
2022-09-23T22:09:00.563Z,0.80
2022-09-23T22:11:51.157Z,0.93
2022-09-23T22:14:19.968Z,1.05
2022-09-23T22:16:47.317Z,0.90
2022-09-23T22:19:15.703Z,0.90
2022-09-23T22:21:44.924Z,0.95
2022-09-23T22:24:12.847Z,0.77
2022-09-23T22:26:42.534Z,0.77
2022-09-23T22:29:30.505Z,0.60
2022-09-23T22:32:16.924Z,0.60
2022-09-23T22:34:51.644Z,0.80
2022-09-23T22:39:47.865Z,0.65
2022-09-23T22:42:15.076Z,0.75
2022-09-23T22:44:42.760Z,0.90
2022-09-23T22:47:10.710Z,0.95
2022-09-23T22:49:37.718Z,0.68
2022-09-23T22:52:09.225Z,0.90
2022-09-23T22:54:36.499Z,0.80
2022-09-23T22:57:09.155Z,0.52
2022-09-23T22:59:37.667Z,0.50
2022-09-23T23:02:06.649Z,0.80
2022-09-23T23:04:33.991Z,0.95
2022-09-23T23:07:01.026Z,0.90
2022-09-23T23:09:28.059Z,0.75
2022-09-23T23:11:55.212Z,0.60
2022-09-23T23:14:22.560Z,0.82
2022-09-23T23:16:49.875Z,0.77
2022-09-23T23:19:17.669Z,0.75
2022-09-23T23:21:45.783Z,1.50
2022-09-23T23:24:19.392Z,1.13
2022-09-23T23:26:47.148Z,1.00
2022-09-23T23:29:16.090Z,0.80
2022-09-23T23:31:44.014Z,1.00
2022-09-23T23:34:16.626Z,0.80
2022-09-23T23:36:45.793Z,0.50
2022-09-23T23:39:13.859Z,0.60
2022-09-23T23:41:42.729Z,0.70
2022-09-23T23:44:12.555Z,0.50
2022-09-23T23:46:39.666Z,0.60
2022-09-23T23:49:06.949Z,0.93
2022-09-23T23:51:34.140Z,0.40
2022-09-23T23:54:01.244Z,0.43
2022-09-23T23:56:30.753Z,0.40
2022-09-23T23:59:02.696Z,0.50
